sensor_id;sensor_type;location;lat;lon;timestamp;P1;durP1;ratioP1;P2;durP2;ratioP2
18125;SDS011;53956;52.442;13.284;2022-11-13T00:02:31;37.03;;;22.90;;
18125;SDS011;53956;52.442;13.284;2022-11-13T00:05:17;35.47;;;22.73;;
18125;SDS011;53956;52.442;13.284;2022-11-13T00:08:04;37.50;;;24.00;;
18125;SDS011;53956;52.442;13.284;2022-11-13T00:10:49;38.53;;;22.97;;
18125;SDS011;53956;52.442;13.284;2022-11-13T00:13:35;39.90;;;23.60;;
18125;SDS011;53956;52.442;13.284;2022-11-13T00:16:20;40.30;;;23.87;;
18125;SDS011;53956;52.442;13.284;2022-11-13T00:19:06;36.93;;;23.53;;
18125;SDS011;53956;52.442;13.284;2022-11-13T00:21:51;39.50;;;24.23;;
18125;SDS011;53956;52.442;13.284;2022-11-13T00:24:38;37.73;;;23.97;;
18125;SDS011;53956;52.442;13.284;2022-11-13T00:27:24;35.10;;;22.13;;
18125;SDS011;53956;52.442;13.284;2022-11-13T00:30:10;39.60;;;23.20;;
18125;SDS011;53956;52.442;13.284;2022-11-13T00:32:55;34.10;;;22.83;;
18125;SDS011;53956;52.442;13.284;2022-11-13T00:35:41;37.93;;;22.80;;
18125;SDS011;53956;52.442;13.284;2022-11-13T00:38:27;35.03;;;22.23;;
18125;SDS011;53956;52.442;13.284;2022-11-13T00:41:14;35.17;;;21.97;;
18125;SDS011;53956;52.442;13.284;2022-11-13T00:43:59;32.13;;;21.43;;
18125;SDS011;53956;52.442;13.284;2022-11-13T00:46:46;34.43;;;21.47;;
18125;SDS011;53956;52.442;13.284;2022-11-13T00:49:31;33.33;;;21.57;;
18125;SDS011;53956;52.442;13.284;2022-11-13T00:52:17;32.67;;;21.53;;
18125;SDS011;53956;52.442;13.284;2022-11-13T00:55:03;38.57;;;22.00;;
18125;SDS011;53956;52.442;13.284;2022-11-13T00:57:51;33.80;;;22.23;;
18125;SDS011;53956;52.442;13.284;2022-11-13T01:00:36;34.77;;;21.80;;
18125;SDS011;53956;52.442;13.284;2022-11-13T01:03:22;31.37;;;21.13;;
18125;SDS011;53956;52.442;13.284;2022-11-13T01:06:08;31.00;;;21.07;;
18125;SDS011;53956;52.442;13.284;2022-11-13T01:08:55;30.87;;;21.43;;
18125;SDS011;53956;52.442;13.284;2022-11-13T01:11:42;34.77;;;19.90;;
18125;SDS011;53956;52.442;13.284;2022-11-13T01:14:29;33.17;;;21.10;;
18125;SDS011;53956;52.442;13.284;2022-11-13T01:17:14;31.50;;;20.50;;
18125;SDS011;53956;52.442;13.284;2022-11-13T01:19:59;31.20;;;19.77;;
18125;SDS011;53956;52.442;13.284;2022-11-13T01:22:45;31.33;;;21.17;;
18125;SDS011;53956;52.442;13.284;2022-11-13T01:25:31;30.20;;;19.67;;
18125;SDS011;53956;52.442;13.284;2022-11-13T01:28:17;34.00;;;20.40;;
18125;SDS011;53956;52.442;13.284;2022-11-13T01:31:04;32.43;;;20.97;;
18125;SDS011;53956;52.442;13.284;2022-11-13T01:33:51;33.03;;;21.17;;
18125;SDS011;53956;52.442;13.284;2022-11-13T01:36:36;28.50;;;20.57;;
18125;SDS011;53956;52.442;13.284;2022-11-13T01:39:21;32.17;;;20.43;;
18125;SDS011;53956;52.442;13.284;2022-11-13T01:42:07;30.67;;;20.53;;
18125;SDS011;53956;52.442;13.284;2022-11-13T01:44:53;31.63;;;20.00;;
18125;SDS011;53956;52.442;13.284;2022-11-13T01:47:42;32.40;;;20.37;;
18125;SDS011;53956;52.442;13.284;2022-11-13T01:50:28;29.60;;;19.97;;
18125;SDS011;53956;52.442;13.284;2022-11-13T01:53:14;29.00;;;20.23;;
18125;SDS011;53956;52.442;13.284;2022-11-13T01:56:00;31.27;;;19.83;;
18125;SDS011;53956;52.442;13.284;2022-11-13T01:58:47;29.17;;;19.30;;
18125;SDS011;53956;52.442;13.284;2022-11-13T02:01:37;27.57;;;19.47;;
18125;SDS011;53956;52.442;13.284;2022-11-13T02:04:25;32.60;;;20.57;;
18125;SDS011;53956;52.442;13.284;2022-11-13T02:07:12;29.07;;;19.50;;
18125;SDS011;53956;52.442;13.284;2022-11-13T02:09:59;25.30;;;18.47;;
18125;SDS011;53956;52.442;13.284;2022-11-13T02:12:45;29.73;;;18.90;;
18125;SDS011;53956;52.442;13.284;2022-11-13T02:15:34;28.13;;;19.23;;
18125;SDS011;53956;52.442;13.284;2022-11-13T02:18:19;29.57;;;18.93;;
18125;SDS011;53956;52.442;13.284;2022-11-13T02:21:11;27.90;;;19.20;;
18125;SDS011;53956;52.442;13.284;2022-11-13T02:24:15;30.30;;;19.53;;
18125;SDS011;53956;52.442;13.284;2022-11-13T02:27:10;27.07;;;18.47;;
18125;SDS011;53956;52.442;13.284;2022-11-13T02:30:09;25.03;;;18.23;;
18125;SDS011;53956;52.442;13.284;2022-11-13T02:32:56;24.97;;;17.37;;
18125;SDS011;53956;52.442;13.284;2022-11-13T02:35:43;25.83;;;17.90;;
18125;SDS011;53956;52.442;13.284;2022-11-13T02:38:28;25.23;;;17.83;;
18125;SDS011;53956;52.442;13.284;2022-11-13T02:41:15;22.37;;;16.57;;
18125;SDS011;53956;52.442;13.284;2022-11-13T02:44:01;28.37;;;18.20;;
18125;SDS011;53956;52.442;13.284;2022-11-13T02:46:46;25.77;;;17.83;;
18125;SDS011;53956;52.442;13.284;2022-11-13T02:49:32;25.17;;;16.77;;
18125;SDS011;53956;52.442;13.284;2022-11-13T02:52:18;25.10;;;16.80;;
18125;SDS011;53956;52.442;13.284;2022-11-13T02:55:04;25.03;;;17.50;;
18125;SDS011;53956;52.442;13.284;2022-11-13T02:57:52;24.03;;;17.10;;
18125;SDS011;53956;52.442;13.284;2022-11-13T03:00:37;25.10;;;16.77;;
18125;SDS011;53956;52.442;13.284;2022-11-13T03:03:23;24.17;;;16.73;;
18125;SDS011;53956;52.442;13.284;2022-11-13T03:06:09;24.93;;;15.93;;
18125;SDS011;53956;52.442;13.284;2022-11-13T03:08:54;24.37;;;16.33;;
18125;SDS011;53956;52.442;13.284;2022-11-13T03:11:41;26.37;;;17.00;;
18125;SDS011;53956;52.442;13.284;2022-11-13T03:14:29;25.43;;;16.63;;
18125;SDS011;53956;52.442;13.284;2022-11-13T03:17:14;23.60;;;15.97;;
18125;SDS011;53956;52.442;13.284;2022-11-13T03:19:59;25.30;;;17.23;;
18125;SDS011;53956;52.442;13.284;2022-11-13T03:22:46;24.37;;;16.63;;
18125;SDS011;53956;52.442;13.284;2022-11-13T03:25:32;23.40;;;16.23;;
18125;SDS011;53956;52.442;13.284;2022-11-13T03:28:17;27.90;;;15.33;;
18125;SDS011;53956;52.442;13.284;2022-11-13T03:31:04;24.50;;;15.43;;
18125;SDS011;53956;52.442;13.284;2022-11-13T03:33:50;20.73;;;15.00;;
18125;SDS011;53956;52.442;13.284;2022-11-13T03:36:36;22.13;;;14.67;;
18125;SDS011;53956;52.442;13.284;2022-11-13T03:39:22;19.40;;;13.97;;
18125;SDS011;53956;52.442;13.284;2022-11-13T03:42:08;19.83;;;12.83;;
18125;SDS011;53956;52.442;13.284;2022-11-13T03:44:53;17.03;;;11.97;;
18125;SDS011;53956;52.442;13.284;2022-11-13T03:47:40;19.57;;;12.93;;
18125;SDS011;53956;52.442;13.284;2022-11-13T03:50:26;17.37;;;12.03;;
18125;SDS011;53956;52.442;13.284;2022-11-13T03:53:11;22.67;;;14.10;;
18125;SDS011;53956;52.442;13.284;2022-11-13T03:55:57;20.33;;;14.40;;
18125;SDS011;53956;52.442;13.284;2022-11-13T03:58:43;24.40;;;15.23;;
18125;SDS011;53956;52.442;13.284;2022-11-13T04:01:29;19.33;;;13.60;;
18125;SDS011;53956;52.442;13.284;2022-11-13T04:04:16;22.43;;;15.10;;
18125;SDS011;53956;52.442;13.284;2022-11-13T04:07:01;25.67;;;16.50;;
18125;SDS011;53956;52.442;13.284;2022-11-13T04:09:47;21.53;;;15.30;;
18125;SDS011;53956;52.442;13.284;2022-11-13T04:12:32;23.23;;;15.67;;
18125;SDS011;53956;52.442;13.284;2022-11-13T04:15:18;22.10;;;16.20;;
18125;SDS011;53956;52.442;13.284;2022-11-13T04:18:04;25.87;;;16.50;;
18125;SDS011;53956;52.442;13.284;2022-11-13T04:20:50;25.10;;;16.20;;
18125;SDS011;53956;52.442;13.284;2022-11-13T04:23:36;24.07;;;15.47;;
18125;SDS011;53956;52.442;13.284;2022-11-13T04:26:21;25.67;;;16.63;;
18125;SDS011;53956;52.442;13.284;2022-11-13T04:29:07;22.03;;;15.80;;
18125;SDS011;53956;52.442;13.284;2022-11-13T04:31:53;21.67;;;14.67;;
18125;SDS011;53956;52.442;13.284;2022-11-13T04:34:38;22.17;;;15.53;;
18125;SDS011;53956;52.442;13.284;2022-11-13T04:37:25;22.40;;;15.33;;
18125;SDS011;53956;52.442;13.284;2022-11-13T04:40:11;20.70;;;15.33;;
18125;SDS011;53956;52.442;13.284;2022-11-13T04:42:56;21.70;;;14.83;;
18125;SDS011;53956;52.442;13.284;2022-11-13T04:45:40;20.37;;;14.53;;
18125;SDS011;53956;52.442;13.284;2022-11-13T04:48:26;20.47;;;13.70;;
18125;SDS011;53956;52.442;13.284;2022-11-13T04:51:12;18.73;;;12.80;;
18125;SDS011;53956;52.442;13.284;2022-11-13T04:53:59;17.90;;;12.47;;
18125;SDS011;53956;52.442;13.284;2022-11-13T04:56:44;21.07;;;13.07;;
18125;SDS011;53956;52.442;13.284;2022-11-13T04:59:30;19.30;;;12.70;;
18125;SDS011;53956;52.442;13.284;2022-11-13T05:02:15;19.37;;;13.00;;
18125;SDS011;53956;52.442;13.284;2022-11-13T05:05:01;17.33;;;12.37;;
18125;SDS011;53956;52.442;13.284;2022-11-13T05:07:46;22.37;;;13.40;;
18125;SDS011;53956;52.442;13.284;2022-11-13T05:10:34;18.97;;;13.57;;
18125;SDS011;53956;52.442;13.284;2022-11-13T05:13:20;22.50;;;13.33;;
18125;SDS011;53956;52.442;13.284;2022-11-13T05:16:06;21.07;;;13.87;;
18125;SDS011;53956;52.442;13.284;2022-11-13T05:18:53;22.33;;;14.03;;
18125;SDS011;53956;52.442;13.284;2022-11-13T05:21:39;20.97;;;13.57;;
18125;SDS011;53956;52.442;13.284;2022-11-13T05:24:24;18.57;;;13.90;;
18125;SDS011;53956;52.442;13.284;2022-11-13T05:27:11;18.93;;;13.07;;
18125;SDS011;53956;52.442;13.284;2022-11-13T05:29:57;20.87;;;13.97;;
18125;SDS011;53956;52.442;13.284;2022-11-13T05:32:42;18.97;;;13.27;;
18125;SDS011;53956;52.442;13.284;2022-11-13T05:35:28;19.93;;;13.53;;
18125;SDS011;53956;52.442;13.284;2022-11-13T05:38:14;19.83;;;13.70;;
18125;SDS011;53956;52.442;13.284;2022-11-13T05:41:00;18.67;;;12.57;;
18125;SDS011;53956;52.442;13.284;2022-11-13T05:43:48;18.07;;;13.60;;
18125;SDS011;53956;52.442;13.284;2022-11-13T05:46:33;20.03;;;12.97;;
18125;SDS011;53956;52.442;13.284;2022-11-13T05:49:19;23.00;;;13.23;;
18125;SDS011;53956;52.442;13.284;2022-11-13T05:52:05;19.50;;;13.17;;
18125;SDS011;53956;52.442;13.284;2022-11-13T05:54:50;20.80;;;13.50;;
18125;SDS011;53956;52.442;13.284;2022-11-13T05:57:36;19.47;;;12.67;;
18125;SDS011;53956;52.442;13.284;2022-11-13T06:00:23;17.70;;;12.53;;
18125;SDS011;53956;52.442;13.284;2022-11-13T06:03:08;24.07;;;14.50;;
18125;SDS011;53956;52.442;13.284;2022-11-13T06:05:54;19.47;;;12.67;;
18125;SDS011;53956;52.442;13.284;2022-11-13T06:08:40;19.03;;;13.37;;
18125;SDS011;53956;52.442;13.284;2022-11-13T06:11:26;22.27;;;13.57;;
18125;SDS011;53956;52.442;13.284;2022-11-13T06:14:12;19.73;;;13.47;;
18125;SDS011;53956;52.442;13.284;2022-11-13T06:16:59;21.03;;;13.07;;
18125;SDS011;53956;52.442;13.284;2022-11-13T06:19:45;20.00;;;14.23;;
18125;SDS011;53956;52.442;13.284;2022-11-13T06:22:31;21.07;;;14.40;;
18125;SDS011;53956;52.442;13.284;2022-11-13T06:25:16;22.63;;;14.80;;
18125;SDS011;53956;52.442;13.284;2022-11-13T06:28:02;22.47;;;15.07;;
18125;SDS011;53956;52.442;13.284;2022-11-13T06:30:48;21.30;;;15.50;;
18125;SDS011;53956;52.442;13.284;2022-11-13T06:33:35;20.53;;;14.70;;
18125;SDS011;53956;52.442;13.284;2022-11-13T06:36:22;23.90;;;15.40;;
18125;SDS011;53956;52.442;13.284;2022-11-13T06:39:08;19.10;;;14.03;;
18125;SDS011;53956;52.442;13.284;2022-11-13T06:41:54;23.83;;;15.87;;
18125;SDS011;53956;52.442;13.284;2022-11-13T06:44:40;23.80;;;15.80;;
18125;SDS011;53956;52.442;13.284;2022-11-13T06:47:26;23.67;;;15.70;;
18125;SDS011;53956;52.442;13.284;2022-11-13T06:50:13;25.03;;;15.67;;
18125;SDS011;53956;52.442;13.284;2022-11-13T06:52:59;22.93;;;16.43;;
18125;SDS011;53956;52.442;13.284;2022-11-13T06:55:45;27.33;;;16.40;;
18125;SDS011;53956;52.442;13.284;2022-11-13T06:58:32;26.10;;;17.30;;
18125;SDS011;53956;52.442;13.284;2022-11-13T07:01:18;24.40;;;16.93;;
18125;SDS011;53956;52.442;13.284;2022-11-13T07:04:05;24.57;;;17.70;;
18125;SDS011;53956;52.442;13.284;2022-11-13T07:06:56;27.53;;;17.83;;
18125;SDS011;53956;52.442;13.284;2022-11-13T07:09:42;29.97;;;17.87;;
18125;SDS011;53956;52.442;13.284;2022-11-13T07:12:27;27.93;;;19.10;;
18125;SDS011;53956;52.442;13.284;2022-11-13T07:15:13;32.53;;;19.77;;
18125;SDS011;53956;52.442;13.284;2022-11-13T07:17:59;26.83;;;18.43;;
18125;SDS011;53956;52.442;13.284;2022-11-13T07:20:45;30.90;;;19.33;;
18125;SDS011;53956;52.442;13.284;2022-11-13T07:23:32;29.03;;;20.03;;
18125;SDS011;53956;52.442;13.284;2022-11-13T07:26:20;29.33;;;21.00;;
18125;SDS011;53956;52.442;13.284;2022-11-13T07:29:05;32.80;;;21.70;;
18125;SDS011;53956;52.442;13.284;2022-11-13T07:31:51;32.53;;;22.40;;
18125;SDS011;53956;52.442;13.284;2022-11-13T07:34:37;31.20;;;21.83;;
18125;SDS011;53956;52.442;13.284;2022-11-13T07:37:22;39.83;;;23.53;;
18125;SDS011;53956;52.442;13.284;2022-11-13T07:40:10;27.60;;;18.10;;
18125;SDS011;53956;52.442;13.284;2022-11-13T07:42:56;36.13;;;24.93;;
18125;SDS011;53956;52.442;13.284;2022-11-13T07:45:43;38.67;;;24.77;;
18125;SDS011;53956;52.442;13.284;2022-11-13T07:48:28;37.73;;;23.30;;
18125;SDS011;53956;52.442;13.284;2022-11-13T07:51:14;40.03;;;24.53;;
18125;SDS011;53956;52.442;13.284;2022-11-13T07:53:59;39.00;;;24.53;;
18125;SDS011;53956;52.442;13.284;2022-11-13T07:56:47;41.40;;;25.27;;
18125;SDS011;53956;52.442;13.284;2022-11-13T07:59:32;37.10;;;24.37;;
18125;SDS011;53956;52.442;13.284;2022-11-13T08:02:18;40.37;;;25.23;;
18125;SDS011;53956;52.442;13.284;2022-11-13T08:05:03;42.67;;;25.70;;
18125;SDS011;53956;52.442;13.284;2022-11-13T08:07:49;39.60;;;25.07;;
18125;SDS011;53956;52.442;13.284;2022-11-13T08:10:35;40.70;;;25.20;;
18125;SDS011;53956;52.442;13.284;2022-11-13T08:13:22;40.47;;;24.57;;
18125;SDS011;53956;52.442;13.284;2022-11-13T08:16:08;36.53;;;23.60;;
18125;SDS011;53956;52.442;13.284;2022-11-13T08:18:54;40.20;;;24.27;;
18125;SDS011;53956;52.442;13.284;2022-11-13T08:21:39;37.87;;;22.50;;
18125;SDS011;53956;52.442;13.284;2022-11-13T08:24:25;36.60;;;21.57;;
18125;SDS011;53956;52.442;13.284;2022-11-13T08:27:11;32.43;;;20.67;;
18125;SDS011;53956;52.442;13.284;2022-11-13T08:29:58;34.00;;;20.77;;
18125;SDS011;53956;52.442;13.284;2022-11-13T08:32:43;29.97;;;19.63;;
18125;SDS011;53956;52.442;13.284;2022-11-13T08:35:30;31.00;;;20.00;;
18125;SDS011;53956;52.442;13.284;2022-11-13T08:38:16;30.77;;;20.33;;
18125;SDS011;53956;52.442;13.284;2022-11-13T08:41:03;34.27;;;20.00;;
18125;SDS011;53956;52.442;13.284;2022-11-13T08:43:49;29.77;;;18.93;;
18125;SDS011;53956;52.442;13.284;2022-11-13T08:46:36;32.23;;;19.17;;
18125;SDS011;53956;52.442;13.284;2022-11-13T08:49:22;28.13;;;18.47;;
18125;SDS011;53956;52.442;13.284;2022-11-13T08:52:07;27.33;;;18.37;;
18125;SDS011;53956;52.442;13.284;2022-11-13T08:54:53;30.87;;;18.97;;
18125;SDS011;53956;52.442;13.284;2022-11-13T08:57:39;30.33;;;18.30;;
18125;SDS011;53956;52.442;13.284;2022-11-13T09:00:25;31.33;;;18.97;;
18125;SDS011;53956;52.442;13.284;2022-11-13T09:03:13;28.57;;;17.97;;
18125;SDS011;53956;52.442;13.284;2022-11-13T09:05:59;30.80;;;17.70;;
18125;SDS011;53956;52.442;13.284;2022-11-13T09:08:44;30.60;;;18.73;;
18125;SDS011;53956;52.442;13.284;2022-11-13T09:11:30;26.70;;;17.87;;
18125;SDS011;53956;52.442;13.284;2022-11-13T09:14:15;27.83;;;17.00;;
18125;SDS011;53956;52.442;13.284;2022-11-13T09:17:01;27.50;;;17.20;;
18125;SDS011;53956;52.442;13.284;2022-11-13T09:19:48;28.73;;;18.13;;
18125;SDS011;53956;52.442;13.284;2022-11-13T09:22:34;25.47;;;17.20;;
18125;SDS011;53956;52.442;13.284;2022-11-13T09:25:19;24.87;;;17.00;;
18125;SDS011;53956;52.442;13.284;2022-11-13T09:28:05;26.57;;;17.07;;
18125;SDS011;53956;52.442;13.284;2022-11-13T09:30:52;24.67;;;16.27;;
18125;SDS011;53956;52.442;13.284;2022-11-13T09:33:38;26.00;;;16.97;;
18125;SDS011;53956;52.442;13.284;2022-11-13T09:36:25;26.07;;;16.03;;
18125;SDS011;53956;52.442;13.284;2022-11-13T09:39:10;29.43;;;17.57;;
18125;SDS011;53956;52.442;13.284;2022-11-13T09:41:56;29.13;;;16.87;;
18125;SDS011;53956;52.442;13.284;2022-11-13T09:44:50;24.73;;;16.70;;
18125;SDS011;53956;52.442;13.284;2022-11-13T09:47:40;25.20;;;17.37;;
18125;SDS011;53956;52.442;13.284;2022-11-13T09:50:28;26.87;;;17.87;;
18125;SDS011;53956;52.442;13.284;2022-11-13T09:53:17;26.63;;;17.17;;
18125;SDS011;53956;52.442;13.284;2022-11-13T09:56:04;25.73;;;16.63;;
18125;SDS011;53956;52.442;13.284;2022-11-13T09:59:05;24.53;;;17.37;;
18125;SDS011;53956;52.442;13.284;2022-11-13T10:02:00;24.53;;;16.70;;
18125;SDS011;53956;52.442;13.284;2022-11-13T10:04:56;25.13;;;17.13;;
18125;SDS011;53956;52.442;13.284;2022-11-13T10:07:48;24.83;;;17.47;;
18125;SDS011;53956;52.442;13.284;2022-11-13T10:10:47;26.60;;;17.83;;
18125;SDS011;53956;52.442;13.284;2022-11-13T10:13:37;24.73;;;16.37;;
18125;SDS011;53956;52.442;13.284;2022-11-13T10:16:28;24.67;;;16.87;;
18125;SDS011;53956;52.442;13.284;2022-11-13T10:19:18;26.37;;;17.37;;
18125;SDS011;53956;52.442;13.284;2022-11-13T10:22:11;28.77;;;18.23;;
18125;SDS011;53956;52.442;13.284;2022-11-13T10:25:03;25.13;;;17.70;;
18125;SDS011;53956;52.442;13.284;2022-11-13T10:27:57;26.87;;;18.33;;
18125;SDS011;53956;52.442;13.284;2022-11-13T10:30:44;25.97;;;18.67;;
18125;SDS011;53956;52.442;13.284;2022-11-13T10:33:30;28.60;;;18.77;;
18125;SDS011;53956;52.442;13.284;2022-11-13T10:36:18;22.63;;;16.87;;
18125;SDS011;53956;52.442;13.284;2022-11-13T10:39:15;28.90;;;18.90;;
18125;SDS011;53956;52.442;13.284;2022-11-13T10:42:00;26.33;;;18.73;;
18125;SDS011;53956;52.442;13.284;2022-11-13T10:44:52;24.87;;;18.00;;
18125;SDS011;53956;52.442;13.284;2022-11-13T10:47:42;25.73;;;17.67;;
18125;SDS011;53956;52.442;13.284;2022-11-13T10:50:30;24.47;;;17.87;;
18125;SDS011;53956;52.442;13.284;2022-11-13T10:53:17;27.23;;;18.60;;
18125;SDS011;53956;52.442;13.284;2022-11-13T10:56:10;30.77;;;17.90;;
18125;SDS011;53956;52.442;13.284;2022-11-13T10:59:08;28.07;;;19.10;;
18125;SDS011;53956;52.442;13.284;2022-11-13T11:02:06;25.77;;;17.70;;
18125;SDS011;53956;52.442;13.284;2022-11-13T11:05:00;23.73;;;18.07;;
18125;SDS011;53956;52.442;13.284;2022-11-13T11:07:46;27.60;;;18.30;;
18125;SDS011;53956;52.442;13.284;2022-11-13T11:10:32;27.07;;;18.70;;
18125;SDS011;53956;52.442;13.284;2022-11-13T11:13:20;27.43;;;18.43;;
18125;SDS011;53956;52.442;13.284;2022-11-13T11:16:06;23.77;;;17.97;;
18125;SDS011;53956;52.442;13.284;2022-11-13T11:18:57;25.43;;;17.80;;
18125;SDS011;53956;52.442;13.284;2022-11-13T11:21:46;24.83;;;18.47;;
18125;SDS011;53956;52.442;13.284;2022-11-13T11:24:34;26.50;;;18.93;;
18125;SDS011;53956;52.442;13.284;2022-11-13T11:27:24;26.27;;;19.00;;
18125;SDS011;53956;52.442;13.284;2022-11-13T11:30:17;23.43;;;17.57;;
18125;SDS011;53956;52.442;13.284;2022-11-13T11:33:08;25.47;;;18.67;;
18125;SDS011;53956;52.442;13.284;2022-11-13T11:36:01;24.80;;;19.00;;
18125;SDS011;53956;52.442;13.284;2022-11-13T11:38:59;26.73;;;18.43;;
18125;SDS011;53956;52.442;13.284;2022-11-13T11:42:12;25.50;;;17.60;;
18125;SDS011;53956;52.442;13.284;2022-11-13T11:45:12;25.47;;;17.90;;
18125;SDS011;53956;52.442;13.284;2022-11-13T11:48:01;26.20;;;18.47;;
18125;SDS011;53956;52.442;13.284;2022-11-13T11:50:49;26.03;;;18.40;;
18125;SDS011;53956;52.442;13.284;2022-11-13T11:53:42;26.40;;;18.40;;
18125;SDS011;53956;52.442;13.284;2022-11-13T11:56:41;28.67;;;18.93;;
18125;SDS011;53956;52.442;13.284;2022-11-13T11:59:37;27.03;;;18.67;;
18125;SDS011;53956;52.442;13.284;2022-11-13T12:02:44;25.37;;;18.50;;
18125;SDS011;53956;52.442;13.284;2022-11-13T12:06:03;25.13;;;17.80;;
18125;SDS011;53956;52.442;13.284;2022-11-13T12:08:58;26.90;;;18.27;;
18125;SDS011;53956;52.442;13.284;2022-11-13T12:11:50;25.33;;;18.90;;
18125;SDS011;53956;52.442;13.284;2022-11-13T12:14:45;26.87;;;18.97;;
18125;SDS011;53956;52.442;13.284;2022-11-13T12:17:47;29.57;;;20.17;;
18125;SDS011;53956;52.442;13.284;2022-11-13T12:20:43;30.03;;;20.37;;
18125;SDS011;53956;52.442;13.284;2022-11-13T12:23:45;32.13;;;21.03;;
18125;SDS011;53956;52.442;13.284;2022-11-13T12:26:59;30.20;;;20.47;;
18125;SDS011;53956;52.442;13.284;2022-11-13T12:29:56;25.73;;;19.00;;
18125;SDS011;53956;52.442;13.284;2022-11-13T12:32:53;26.20;;;19.10;;
18125;SDS011;53956;52.442;13.284;2022-11-13T12:35:53;26.87;;;19.10;;
18125;SDS011;53956;52.442;13.284;2022-11-13T12:38:40;27.47;;;19.20;;
18125;SDS011;53956;52.442;13.284;2022-11-13T12:41:34;25.83;;;17.70;;
18125;SDS011;53956;52.442;13.284;2022-11-13T12:44:29;26.30;;;18.33;;
18125;SDS011;53956;52.442;13.284;2022-11-13T12:47:17;25.43;;;18.50;;
18125;SDS011;53956;52.442;13.284;2022-11-13T12:50:04;27.47;;;18.60;;
18125;SDS011;53956;52.442;13.284;2022-11-13T12:52:58;28.50;;;18.70;;
18125;SDS011;53956;52.442;13.284;2022-11-13T12:55:52;24.53;;;18.43;;
18125;SDS011;53956;52.442;13.284;2022-11-13T12:58:52;27.13;;;17.97;;
18125;SDS011;53956;52.442;13.284;2022-11-13T13:01:42;27.60;;;18.53;;
18125;SDS011;53956;52.442;13.284;2022-11-13T13:04:36;24.37;;;16.93;;
18125;SDS011;53956;52.442;13.284;2022-11-13T13:07:39;26.13;;;18.10;;
18125;SDS011;53956;52.442;13.284;2022-11-13T13:10:40;26.43;;;18.17;;
18125;SDS011;53956;52.442;13.284;2022-11-13T13:13:37;26.33;;;17.90;;
18125;SDS011;53956;52.442;13.284;2022-11-13T13:16:30;24.50;;;17.00;;
18125;SDS011;53956;52.442;13.284;2022-11-13T13:19:23;25.13;;;17.23;;
18125;SDS011;53956;52.442;13.284;2022-11-13T13:22:11;22.17;;;16.50;;
18125;SDS011;53956;52.442;13.284;2022-11-13T13:25:21;25.67;;;17.50;;
18125;SDS011;53956;52.442;13.284;2022-11-13T13:28:16;21.97;;;16.73;;
18125;SDS011;53956;52.442;13.284;2022-11-13T13:31:06;26.97;;;16.80;;
18125;SDS011;53956;52.442;13.284;2022-11-13T13:37:21;23.13;;;17.00;;
18125;SDS011;53956;52.442;13.284;2022-11-13T13:40:14;22.03;;;16.10;;
18125;SDS011;53956;52.442;13.284;2022-11-13T13:43:14;23.10;;;16.27;;
18125;SDS011;53956;52.442;13.284;2022-11-13T13:46:12;24.53;;;16.77;;
18125;SDS011;53956;52.442;13.284;2022-11-13T13:49:01;24.80;;;16.43;;
18125;SDS011;53956;52.442;13.284;2022-11-13T13:51:51;26.10;;;17.07;;
18125;SDS011;53956;52.442;13.284;2022-11-13T13:54:38;25.80;;;17.13;;
18125;SDS011;53956;52.442;13.284;2022-11-13T13:57:26;23.23;;;16.30;;
18125;SDS011;53956;52.442;13.284;2022-11-13T14:00:13;25.80;;;17.10;;
18125;SDS011;53956;52.442;13.284;2022-11-13T14:03:01;24.60;;;17.50;;
18125;SDS011;53956;52.442;13.284;2022-11-13T14:05:47;24.37;;;17.47;;
18125;SDS011;53956;52.442;13.284;2022-11-13T14:11:19;25.43;;;17.10;;
18125;SDS011;53956;52.442;13.284;2022-11-13T14:14:06;24.87;;;17.20;;
18125;SDS011;53956;52.442;13.284;2022-11-13T14:16:52;24.47;;;16.87;;
18125;SDS011;53956;52.442;13.284;2022-11-13T14:19:39;23.87;;;17.87;;
18125;SDS011;53956;52.442;13.284;2022-11-13T14:22:25;25.20;;;18.17;;
18125;SDS011;53956;52.442;13.284;2022-11-13T14:25:16;26.00;;;17.97;;
18125;SDS011;53956;52.442;13.284;2022-11-13T14:28:12;26.47;;;19.03;;
18125;SDS011;53956;52.442;13.284;2022-11-13T14:31:00;28.30;;;18.93;;
18125;SDS011;53956;52.442;13.284;2022-11-13T14:33:47;26.60;;;18.83;;
18125;SDS011;53956;52.442;13.284;2022-11-13T14:36:34;29.17;;;19.70;;
18125;SDS011;53956;52.442;13.284;2022-11-13T14:39:22;27.53;;;19.77;;
18125;SDS011;53956;52.442;13.284;2022-11-13T14:42:12;30.20;;;20.10;;
18125;SDS011;53956;52.442;13.284;2022-11-13T14:48:16;28.57;;;19.47;;
18125;SDS011;53956;52.442;13.284;2022-11-13T14:51:04;29.33;;;19.00;;
18125;SDS011;53956;52.442;13.284;2022-11-13T14:53:58;30.47;;;20.37;;
18125;SDS011;53956;52.442;13.284;2022-11-13T14:56:44;30.43;;;19.30;;
18125;SDS011;53956;52.442;13.284;2022-11-13T14:59:30;28.23;;;19.00;;
18125;SDS011;53956;52.442;13.284;2022-11-13T15:02:17;25.33;;;18.27;;
18125;SDS011;53956;52.442;13.284;2022-11-13T15:05:03;29.23;;;19.37;;
18125;SDS011;53956;52.442;13.284;2022-11-13T15:07:48;27.73;;;19.17;;
18125;SDS011;53956;52.442;13.284;2022-11-13T15:10:35;27.87;;;18.67;;
18125;SDS011;53956;52.442;13.284;2022-11-13T15:13:21;26.30;;;18.17;;
18125;SDS011;53956;52.442;13.284;2022-11-13T15:16:08;28.27;;;19.67;;
18125;SDS011;53956;52.442;13.284;2022-11-13T15:19:00;28.27;;;19.20;;
18125;SDS011;53956;52.442;13.284;2022-11-13T15:21:47;28.67;;;19.47;;
18125;SDS011;53956;52.442;13.284;2022-11-13T15:24:33;27.93;;;18.63;;
18125;SDS011;53956;52.442;13.284;2022-11-13T15:27:18;27.60;;;19.23;;
18125;SDS011;53956;52.442;13.284;2022-11-13T15:30:04;28.77;;;19.20;;
18125;SDS011;53956;52.442;13.284;2022-11-13T15:32:50;30.10;;;20.20;;
18125;SDS011;53956;52.442;13.284;2022-11-13T15:35:39;26.40;;;18.83;;
18125;SDS011;53956;52.442;13.284;2022-11-13T15:38:24;29.70;;;19.90;;
18125;SDS011;53956;52.442;13.284;2022-11-13T15:41:10;29.93;;;20.20;;
18125;SDS011;53956;52.442;13.284;2022-11-13T15:43:57;28.40;;;20.23;;
18125;SDS011;53956;52.442;13.284;2022-11-13T15:46:43;29.40;;;20.47;;
18125;SDS011;53956;52.442;13.284;2022-11-13T15:49:31;30.00;;;19.27;;
18125;SDS011;53956;52.442;13.284;2022-11-13T15:52:17;30.73;;;20.47;;
18125;SDS011;53956;52.442;13.284;2022-11-13T15:55:05;28.27;;;19.90;;
18125;SDS011;53956;52.442;13.284;2022-11-13T15:57:59;29.80;;;19.47;;
18125;SDS011;53956;52.442;13.284;2022-11-13T16:00:46;28.70;;;19.20;;
18125;SDS011;53956;52.442;13.284;2022-11-13T16:03:31;29.47;;;18.63;;
18125;SDS011;53956;52.442;13.284;2022-11-13T16:06:22;25.40;;;18.33;;
18125;SDS011;53956;52.442;13.284;2022-11-13T16:09:11;27.73;;;18.53;;
18125;SDS011;53956;52.442;13.284;2022-11-13T16:11:57;25.40;;;18.00;;
18125;SDS011;53956;52.442;13.284;2022-11-13T16:14:44;25.90;;;18.57;;
18125;SDS011;53956;52.442;13.284;2022-11-13T16:17:30;28.13;;;18.03;;
18125;SDS011;53956;52.442;13.284;2022-11-13T16:20:24;28.20;;;18.77;;